Terminal Aerodrome Forecast
Issued by NWS Lubbock, TX

Home | Current Version | Previous Version | Text Only | Print | Product List | Glossary On
Versions: 1 2 3 4 5 6 7 8 9 10 11 12 13 14 15
000
FTUS44 KLUB 181100
TAFLBB
TAF
KLBB 181120Z 1812/1912 VRB04KT 6SM BR OVC006
     FM181500 20008KT P6SM OVC012
     FM181700 17011KT P6SM SCT030 BKN300=

USA.gov is the U.S. government's official web portal to all federal, state and local government web resources and services.